Time;durP1;ratioP1;P1;durP2;ratioP2;P2;SDS_P1;SDS_P2;PMS_P1;PMS_P2;Temp;Humidity;BMP_temperature;BMP_pressure;BME280_temperature;BME280_humidity;BME280_pressure;Samples;Min_cycle;Max_cycle;Signal;HPM_P1;HPM_P2
2020/12/25 05:33:12;;;;;;;3.63;0.97;;;4.50;99.90;;;;;;3978084;29;20296;-93
2020/12/25 05:44:03;;;;;;;4.77;1.03;;;4.70;99.90;;;;;;4340092;23;20223;-93
2020/12/25 05:46:59;;;;;;;3.13;0.80;;;4.80;99.90;;;;;;4007425;29;20246;-91
2020/12/25 05:53:01;;;;;;;3.67;0.80;;;4.80;99.90;;;;;;4077985;23;20330;-93
2020/12/25 05:59:22;;;;;;;7.60;1.00;;;4.90;99.90;;;;;;4012721;29;20556;-92
2020/12/25 06:07:56;;;;;;;6.63;1.33;;;4.90;99.90;;;;;;4194853;23;20260;-91
2020/12/25 06:10:24;;;;;;;2.10;0.70;;;5.00;99.90;;;;;;4023410;29;20222;-93
2020/12/25 06:12:48;;;;;;;3.10;1.00;;;4.90;99.90;;;;;;4022861;29;20293;-91
2020/12/25 06:15:17;;;;;;;6.10;1.27;;;4.80;99.90;;;;;;4023338;29;20206;-93
2020/12/25 06:17:58;;;;;;;8.30;1.00;;;4.80;99.90;;;;;;4025146;29;20673;-91
2020/12/25 06:20:06;;;;;;;4.13;0.90;;;4.80;99.90;;;;;;4027586;29;20174;-92
2020/12/25 06:22:49;;;;;;;5.83;0.80;;;4.70;99.90;;;;;;4025979;29;20198;-92
2020/12/25 06:25:15;;;;;;;4.47;0.83;;;4.70;99.90;;;;;;4024599;29;20312;-91
2020/12/25 06:27:34;;;;;;;6.83;0.90;;;4.70;99.90;;;;;;4023999;29;20221;-91
2020/12/25 06:30:12;;;;;;;4.23;0.80;;;4.80;99.90;;;;;;4025227;29;20197;-92
2020/12/25 06:32:20;;;;;;;3.03;0.77;;;4.90;99.90;;;;;;4009745;29;20632;-91
2020/12/25 06:35:01;;;;;;;;;;;;;;;;;;;;;
2020/12/25 06:37:49;;;;;;;3.77;0.77;;;4.80;99.90;;;;;;4025040;29;20231;-92
2020/12/25 06:40:34;;;;;;;5.83;0.77;;;4.90;99.90;;;;;;4023869;29;20187;-94
2020/12/25 06:43:01;;;;;;;5.93;0.80;;;5.10;99.90;;;;;;4021824;29;20196;-93
2020/12/25 06:45:58;;;;;;;;;;;;;;;;;;;;;
2020/12/25 06:51:06;;;;;;;5.60;0.60;;;5.20;99.90;;;;;;4024958;29;20191;-91
2020/12/25 06:53:41;;;;;;;6.37;0.73;;;5.10;99.90;;;;;;4024676;29;20194;-93
2020/12/25 06:56:13;;;;;;;2.03;0.60;;;5.20;99.90;;;;;;4042394;29;20177;-93
2020/12/25 06:58:37;;;;;;;4.63;0.63;;;5.20;99.90;;;;;;4010887;29;20236;-94
2020/12/25 07:01:05;;;;;;;5.13;0.93;;;5.20;99.90;;;;;;4028019;29;20183;-94
2020/12/25 07:03:16;;;;;;;8.90;0.97;;;5.20;99.90;;;;;;4022296;29;20214;-94
2020/12/25 07:05:23;;;;;;;3.17;0.40;;;5.10;99.90;;;;;;4025555;29;20206;-92
2020/12/25 07:07:37;;;;;;;4.07;0.60;;;5.00;99.90;;;;;;4024443;29;20222;-92
2020/12/25 07:10:15;;;;;;;5.57;0.93;;;5.00;99.90;;;;;;4037214;29;20659;-93
2020/12/25 07:12:30;;;;;;;5.77;0.90;;;5.00;99.90;;;;;;4025399;29;20170;-93
2020/12/25 07:15:17;;;;;;;9.20;0.57;;;5.00;99.90;;;;;;4012726;29;20259;-94
2020/12/25 07:17:49;;;;;;;3.23;0.43;;;5.00;99.90;;;;;;4025003;29;20182;-93
2020/12/25 07:20:08;;;;;;;2.87;0.50;;;4.90;99.90;;;;;;4027641;29;20198;-92
2020/12/25 07:22:15;;;;;;;3.67;0.60;;;5.10;99.90;;;;;;4027985;29;20317;-91
2020/12/25 07:24:57;;;;;;;6.63;0.80;;;5.00;99.90;;;;;;4038997;29;20689;-93
2020/12/25 07:27:16;;;;;;;5.87;0.70;;;5.10;99.90;;;;;;4041157;29;20272;-93
2020/12/25 07:29:27;;;;;;;6.07;0.70;;;5.00;99.90;;;;;;4025666;29;20183;-93
2020/12/25 07:31:31;;;;;;;10.93;0.90;;;5.00;99.90;;;;;;4011795;29;20178;-93
2020/12/25 07:33:42;;;;;;;6.77;0.90;;;4.90;99.90;;;;;;4025161;29;20745;-93
2020/12/25 07:36:13;;;;;;;6.00;0.90;;;5.00;99.90;;;;;;4028807;29;20170;-93
2020/12/25 07:38:20;;;;;;;6.53;0.87;;;5.00;99.90;;;;;;4027683;29;20195;-92
2020/12/25 07:40:31;;;;;;;7.83;0.73;;;5.00;99.90;;;;;;4027890;29;20172;-92
2020/12/25 07:42:32;;;;;;;4.40;0.73;;;5.00;99.90;;;;;;4029254;29;20270;-93
2020/12/25 07:44:47;;;;;;;5.13;0.80;;;5.00;99.90;;;;;;4010150;29;20222;-89
2020/12/25 07:47:26;;;;;;;5.10;0.80;;;5.00;99.90;;;;;;4026781;29;20177;-93
2020/12/25 07:49:55;;;;;;;2.87;0.80;;;4.80;99.90;;;;;;4026914;29;20239;-92
2020/12/25 07:52:05;;;;;;;8.27;0.90;;;4.50;99.90;;;;;;4027769;29;20166;-90
2020/12/25 07:54:22;;;;;;;6.87;0.87;;;4.50;99.90;;;;;;4026620;29;20210;-92
2020/12/25 07:57:09;;;;;;;11.77;1.20;;;4.50;99.90;;;;;;4027915;29;20189;-93
2020/12/25 07:59:39;;;;;;;5.43;1.40;;;4.50;99.90;;;;;;4027617;29;20597;-93
2020/12/25 08:02:01;;;;;;;3.90;1.10;;;4.40;99.90;;;;;;4027101;29;20265;-92
2020/12/25 08:04:28;;;;;;;6.30;1.37;;;4.40;99.90;;;;;;4025095;29;20657;-92
2020/12/25 08:06:40;;;;;;;6.90;1.33;;;4.50;99.90;;;;;;4026129;29;20182;-92
2020/12/25 08:09:10;;;;;;;5.47;1.17;;;4.40;99.90;;;;;;4026715;29;20197;-93
2020/12/25 08:11:31;;;;;;;3.60;1.10;;;4.20;99.90;;;;;;4031452;29;20211;-91
2020/12/25 08:14:16;;;;;;;4.90;1.30;;;4.30;99.90;;;;;;4028722;29;20187;-92
2020/12/25 08:17:01;;;;;;;5.87;1.77;;;4.20;99.90;;;;;;4033187;29;20189;-93
2020/12/25 08:19:31;;;;;;;5.77;1.50;;;4.20;99.90;;;;;;4026160;29;20170;-91
2020/12/25 08:22:01;;;;;;;6.80;1.60;;;4.30;99.90;;;;;;4019956;29;20159;-92
2020/12/25 08:24:26;;;;;;;6.07;1.93;;;4.40;99.90;;;;;;4013884;29;20238;-93
2020/12/25 08:26:50;;;;;;;6.70;1.67;;;4.60;99.90;;;;;;4030975;29;20192;-93
2020/12/25 08:29:11;;;;;;;6.53;2.20;;;4.50;99.90;;;;;;4033200;29;20329;-92
2020/12/25 08:31:31;;;;;;;4.70;1.50;;;4.70;99.90;;;;;;4028385;29;20182;-92
2020/12/25 08:34:01;;;;;;;5.30;1.77;;;4.90;99.90;;;;;;4030652;29;20202;-93
2020/12/25 08:36:15;;;;;;;3.27;1.53;;;4.90;99.90;;;;;;4028123;29;20195;-93
2020/12/25 08:38:29;;;;;;;8.00;2.30;;;4.70;99.90;;;;;;4032319;29;20185;-92
2020/12/25 08:40:42;;;;;;;9.33;2.60;;;4.80;99.90;;;;;;4033662;29;20186;-91
2020/12/25 08:42:47;;;;;;;20.70;3.37;;;4.80;99.90;;;;;;4030392;29;20170;-92
2020/12/25 08:45:01;;;;;;;8.40;2.50;;;4.80;99.90;;;;;;4032167;29;20214;-92
2020/12/25 08:47:43;;;;;;;8.63;3.00;;;4.70;99.90;;;;;;4043070;29;20165;-92
2020/12/25 08:49:56;;;;;;;10.70;3.90;;;4.80;99.90;;;;;;4032521;29;20166;-92
2020/12/25 08:52:26;;;;;;;10.97;3.43;;;4.70;99.90;;;;;;4027489;29;20672;-91
2020/12/25 08:54:30;;;;;;;8.87;3.60;;;4.60;99.90;;;;;;4134009;24;20707;-91
2020/12/25 08:56:37;;;;;;;17.73;3.97;;;4.60;99.90;;;;;;4029291;29;20634;-92
2020/12/25 08:59:40;;;;;;;6.90;2.67;;;4.70;99.90;;;;;;4141701;23;20828;-91
2020/12/25 09:01:56;;;;;;;18.80;4.20;;;4.60;99.90;;;;;;4030274;29;20177;-91
2020/12/25 09:04:28;;;;;;;10.33;3.87;;;4.70;99.90;;;;;;4029832;29;20260;-92
2020/12/25 09:06:31;;;;;;;11.27;3.97;;;4.80;99.90;;;;;;4025120;29;20190;-91
2020/12/25 09:08:59;;;;;;;14.10;3.23;;;5.10;99.90;;;;;;4027736;29;20579;-93
2020/12/25 09:11:04;;;;;;;12.90;3.30;;;5.10;99.90;;;;;;4013421;29;20198;-92
2020/12/25 09:13:39;;;;;;;10.30;3.03;;;4.90;99.90;;;;;;4024884;29;20296;-92
2020/12/25 09:15:48;;;;;;;8.60;2.87;;;4.70;99.90;;;;;;4026606;29;20198;-92
2020/12/25 09:18:01;;;;;;;11.57;3.30;;;4.80;99.90;;;;;;4023049;29;20227;-92
2020/12/25 09:20:24;;;;;;;10.60;4.10;;;4.90;99.90;;;;;;4008998;29;20197;-91
2020/12/25 09:22:31;;;;;;;12.27;3.23;;;5.10;99.90;;;;;;4026649;29;20308;-92
2020/12/25 09:24:44;;;;;;;9.00;3.03;;;5.30;99.90;;;;;;4013531;29;20207;-93
2020/12/25 09:27:13;;;;;;;10.83;3.40;;;5.50;99.90;;;;;;4026373;29;20167;-91
2020/12/25 09:29:40;;;;;;;13.80;3.47;;;5.20;99.90;;;;;;4025758;29;20188;-92
2020/12/25 09:32:08;;;;;;;12.03;2.93;;;5.50;99.90;;;;;;4025595;29;20252;-92
2020/12/25 09:34:37;;;;;;;10.50;2.80;;;5.60;99.90;;;;;;4025038;29;20206;-93
2020/12/25 09:36:55;;;;;;;13.37;3.00;;;5.70;99.90;;;;;;4026014;29;20198;-92
2020/12/25 09:39:08;;;;;;;9.67;2.80;;;5.60;99.90;;;;;;4026089;29;20666;-91
2020/12/25 09:41:36;;;;;;;12.70;2.70;;;5.50;99.90;;;;;;4023091;29;20190;-92
2020/12/25 09:44:14;;;;;;;10.00;2.67;;;5.50;99.90;;;;;;4028253;29;20225;-93
2020/12/25 09:46:54;;;;;;;7.07;2.43;;;5.30;99.90;;;;;;4021534;29;20190;-93
2020/12/25 09:49:23;;;;;;;12.20;2.83;;;5.20;99.90;;;;;;4026775;29;20178;-90
2020/12/25 09:51:34;;;;;;;8.60;2.33;;;5.10;99.90;;;;;;4012861;29;20218;-92
2020/12/25 09:53:51;;;;;;;12.80;2.93;;;5.00;99.90;;;;;;4008968;29;20270;-92
2020/12/25 09:56:07;;;;;;;7.83;2.30;;;5.00;99.90;;;;;;4025413;29;20188;-92
2020/12/25 09:58:30;;;;;;;12.67;2.63;;;4.90;99.90;;;;;;4029180;29;20186;-93
2020/12/25 10:00:42;;;;;;;10.93;2.27;;;4.70;99.90;;;;;;4026744;29;20318;-90
2020/12/25 10:02:55;;;;;;;3.10;0.90;;;4.80;99.90;;;;;;4025994;29;20269;-92
2020/12/25 10:05:31;;;;;;;6.83;1.60;;;4.80;99.90;;;;;;4008829;29;20213;-92
2020/12/25 10:08:01;;;;;;;6.97;1.33;;;5.00;99.90;;;;;;4010570;29;20183;-92
2020/12/25 10:10:19;;;;;;;7.97;1.77;;;5.10;99.90;;;;;;4027581;29;20211;-92
2020/12/25 10:12:31;;;;;;;12.03;1.87;;;5.30;99.90;;;;;;4018327;24;20545;-93
2020/12/25 10:14:47;;;;;;;9.93;1.80;;;5.50;99.90;;;;;;4025956;29;20226;-91
2020/12/25 10:16:51;;;;;;;9.73;1.80;;;5.90;99.90;;;;;;4009022;29;20187;-92
2020/12/25 10:19:01;;;;;;;5.43;1.80;;;6.10;99.90;;;;;;4044279;29;20165;-91
2020/12/25 10:21:26;;;;;;;9.30;1.53;;;6.30;99.90;;;;;;4027349;29;20317;-93
2020/12/25 10:23:38;;;;;;;5.90;1.30;;;6.20;99.90;;;;;;4027005;29;20210;-92
2020/12/25 10:25:58;;;;;;;11.17;1.23;;;6.20;99.90;;;;;;4026556;29;20198;-92
2020/12/25 10:28:19;;;;;;;8.30;1.73;;;6.10;99.90;;;;;;4027955;29;20287;-91
2020/12/25 10:30:33;;;;;;;10.33;1.70;;;5.90;99.90;;;;;;4025393;29;20627;-92
2020/12/25 10:32:59;;;;;;;7.90;1.50;;;6.10;99.90;;;;;;4010900;29;20733;-92
2020/12/25 10:35:02;;;;;;;10.93;1.63;;;5.90;99.90;;;;;;4027837;29;20292;-91
2020/12/25 10:37:27;;;;;;;16.23;1.93;;;6.10;99.90;;;;;;4013252;29;20175;-93
2020/12/25 10:39:46;;;;;;;9.80;1.93;;;6.00;99.90;;;;;;4011531;29;20734;-92
2020/12/25 10:42:14;;;;;;;10.07;2.13;;;6.10;99.90;;;;;;4024406;29;20563;-92
2020/12/25 10:44:46;;;;;;;7.33;1.67;;;6.00;99.90;;;;;;4023371;29;20222;-92
2020/12/25 10:46:54;;;;;;;7.40;1.77;;;6.10;99.90;;;;;;4014132;29;20651;-93
2020/12/25 10:49:09;;;;;;;7.67;1.70;;;6.00;99.90;;;;;;4027299;29;20157;-92
2020/12/25 10:51:57;;;;;;;11.47;1.93;;;5.90;99.90;;;;;;4025427;29;20607;-92
2020/12/25 10:54:30;;;;;;;4.40;1.47;;;5.80;99.90;;;;;;4030393;29;20209;-92
2020/12/25 10:56:37;;;;;;;9.27;2.27;;;5.80;99.90;;;;;;4027458;29;20167;-90
2020/12/25 10:58:48;;;;;;;12.57;3.00;;;5.90;99.90;;;;;;4027530;29;20169;-92
2020/12/25 11:01:02;;;;;;;9.23;2.23;;;6.00;99.90;;;;;;4032799;29;20533;-93
2020/12/25 11:03:33;;;;;;;10.03;2.10;;;6.10;99.90;;;;;;4006004;29;20186;-92
2020/12/25 11:06:15;;;;;;;6.83;2.07;;;6.10;99.90;;;;;;4029872;29;20205;-93
2020/12/25 11:08:48;;;;;;;9.83;1.90;;;6.10;99.90;;;;;;4026321;29;20543;-93
2020/12/25 11:11:01;;;;;;;4.43;1.10;;;6.00;99.90;;;;;;4036425;29;20194;-94
2020/12/25 11:13:23;;;;;;;8.97;1.93;;;6.00;99.90;;;;;;4040893;29;20210;-93
2020/12/25 11:16:02;;;;;;;8.13;1.53;;;6.10;99.90;;;;;;4038096;29;20265;-93
2020/12/25 11:18:21;;;;;;;10.00;1.97;;;6.20;99.90;;;;;;4031524;29;20174;-92
2020/12/25 11:20:38;;;;;;;14.90;1.90;;;6.40;99.90;;;;;;4014526;29;20183;-93
2020/12/25 11:23:22;;;;;;;13.73;2.33;;;6.40;99.90;;;;;;4029079;29;20200;-91
2020/12/25 11:25:43;;;;;;;21.03;3.23;;;6.50;99.90;;;;;;4030968;29;20217;-91
2020/12/25 11:27:52;;;;;;;11.43;3.53;;;6.70;99.90;;;;;;4010712;29;20167;-92
2020/12/25 11:30:10;;;;;;;10.30;2.70;;;6.80;99.90;;;;;;4045814;29;20165;-92
2020/12/25 11:32:37;;;;;;;12.13;2.67;;;7.00;99.90;;;;;;4029237;29;20205;-93
2020/12/25 11:34:58;;;;;;;17.43;3.80;;;7.00;99.90;;;;;;4026257;29;20222;-92
2020/12/25 11:37:34;;;;;;;17.03;3.37;;;6.90;99.90;;;;;;4028449;29;20214;-92
2020/12/25 11:40:18;;;;;;;14.10;3.00;;;6.80;99.90;;;;;;4030764;29;20213;-93
2020/12/25 11:42:52;;;;;;;;;;;;;;;;;;;;;
2020/12/25 12:00:49;;;;;;;6.17;1.10;;;7.80;99.90;;;;;;3999031;29;20318;-90
2020/12/25 12:03:17;;;;;;;12.83;1.70;;;7.60;99.90;;;;;;3997305;29;20215;-96
2020/12/25 12:05:20;;;;;;;8.60;1.87;;;7.60;99.90;;;;;;3967819;29;20393;-92
2020/12/25 12:07:27;;;;;;;10.17;1.70;;;7.40;99.90;;;;;;3969219;30;20188;-91
2020/12/25 12:09:29;;;;;;;8.20;1.47;;;7.50;99.90;;;;;;3982794;29;20208;-95
2020/12/25 12:11:40;;;;;;;6.33;1.40;;;7.20;99.90;;;;;;3981979;29;20188;-92
2020/12/25 12:13:41;;;;;;;6.63;1.10;;;6.70;99.90;;;;;;3980155;29;20180;-92
2020/12/25 12:15:42;;;;;;;8.23;1.60;;;6.50;99.90;;;;;;3967220;30;20718;-93
2020/12/25 12:17:43;;;;;;;5.30;1.30;;;6.40;99.90;;;;;;3968413;30;20277;-92
2020/12/25 12:19:44;;;;;;;13.20;1.60;;;6.30;99.90;;;;;;3968281;30;20214;-95
2020/12/25 12:21:49;;;;;;;3.37;1.27;;;6.20;99.90;;;;;;3982269;29;20153;-95
2020/12/25 12:23:52;;;;;;;5.40;1.40;;;6.00;99.90;;;;;;3983143;29;20231;-91
2020/12/25 12:25:55;;;;;;;3.80;1.30;;;5.90;99.90;;;;;;3982251;29;20184;-94
2020/12/25 12:27:56;;;;;;;6.03;1.47;;;6.00;99.90;;;;;;3968464;30;20641;-92
2020/12/25 12:30:00;;;;;;;4.53;0.73;;;6.10;99.90;;;;;;3967950;30;20684;-93
2020/12/25 12:32:02;;;;;;;3.50;0.73;;;6.10;99.90;;;;;;3983476;29;20676;-94
2020/12/25 12:34:13;;;;;;;6.87;1.07;;;5.90;99.90;;;;;;3984359;29;20220;-93
2020/12/25 12:36:14;;;;;;;9.50;1.40;;;5.70;99.90;;;;;;3964400;30;20184;-91
2020/12/25 12:38:18;;;;;;;7.23;1.47;;;5.60;99.90;;;;;;3968749;30;20284;-90
2020/12/25 12:40:28;;;;;;;5.87;1.60;;;5.70;99.90;;;;;;3967638;29;20196;-93
2020/12/25 12:42:34;;;;;;;4.97;1.67;;;5.80;99.90;;;;;;3981733;29;20168;-93
2020/12/25 12:44:48;;;;;;;0.60;0.50;;;5.80;99.90;;;;;;3982092;29;20224;-95
2020/12/25 12:47:00;;;;;;;5.50;1.03;;;5.80;99.90;;;;;;3966364;29;20185;-92
2020/12/25 12:49:11;;;;;;;5.70;1.03;;;5.70;99.90;;;;;;3971163;29;20214;-91
2020/12/25 12:51:26;;;;;;;5.23;1.17;;;6.00;99.90;;;;;;3995382;29;20195;-92
2020/12/25 12:53:58;;;;;;;4.20;0.90;;;6.10;99.90;;;;;;3989117;29;20187;-91
2020/12/25 12:56:36;;;;;;;6.23;1.33;;;6.10;99.90;;;;;;3989171;29;20180;-94
2020/12/25 12:59:36;;;;;;;7.53;1.00;;;6.10;99.90;;;;;;3959348;29;20240;-92
2020/12/25 13:02:25;;;;;;;4.57;1.30;;;6.30;99.90;;;;;;3996329;24;20294;-93
2020/12/25 13:04:43;;;;;;;2.00;0.80;;;6.50;99.90;;;;;;4016948;29;20242;-91
2020/12/25 13:06:48;;;;;;;2.53;1.20;;;6.40;99.90;;;;;;4014961;29;20186;-93
2020/12/25 13:11:25;;;;;;;3.73;1.40;;;6.10;99.90;;;;;;3992847;29;20237;-96
2020/12/25 13:13:26;;;;;;;4.53;1.30;;;6.00;99.90;;;;;;3963358;29;20181;-95
2020/12/25 13:15:27;;;;;;;3.63;1.30;;;6.10;99.90;;;;;;3978054;29;20279;-94
2020/12/25 13:17:27;;;;;;;4.23;1.70;;;6.20;99.90;;;;;;3962801;29;20177;-94
2020/12/25 13:19:28;;;;;;;2.73;1.20;;;6.20;99.90;;;;;;3963335;30;20334;-95
2020/12/25 13:21:29;;;;;;;2.97;0.80;;;6.10;99.90;;;;;;3963078;29;20176;-94
2020/12/25 13:23:33;;;;;;;7.30;1.27;;;6.20;99.90;;;;;;3978173;29;20216;-94
2020/12/25 13:25:34;;;;;;;2.90;1.00;;;6.10;99.90;;;;;;3963174;30;20290;-94
2020/12/25 13:27:37;;;;;;;4.47;1.00;;;6.00;99.90;;;;;;3978195;29;20200;-94
2020/12/25 13:29:37;;;;;;;2.67;0.90;;;5.80;99.90;;;;;;3977608;29;20177;-95
2020/12/25 13:31:40;;;;;;;4.93;1.00;;;5.70;99.90;;;;;;3962791;30;20173;-96
2020/12/25 13:33:44;;;;;;;4.17;0.80;;;5.70;99.90;;;;;;3977635;29;20255;-93
2020/12/25 13:35:50;;;;;;;4.37;1.17;;;5.80;99.90;;;;;;3977783;29;20182;-94
2020/12/25 13:37:51;;;;;;;4.13;0.77;;;5.90;99.90;;;;;;3994784;29;20290;-95
2020/12/25 13:39:52;;;;;;;4.47;0.97;;;5.90;99.90;;;;;;3965869;29;20184;-92
2020/12/25 13:41:53;;;;;;;5.43;1.33;;;5.80;99.90;;;;;;3963618;30;20606;-93
2020/12/25 13:43:59;;;;;;;5.07;1.00;;;5.80;99.90;;;;;;3993862;29;20584;-95
2020/12/25 13:46:01;;;;;;;4.43;0.70;;;5.90;99.90;;;;;;3979217;29;20229;-95
2020/12/25 13:48:04;;;;;;;4.90;1.07;;;6.10;99.90;;;;;;3979146;29;20180;-94
2020/12/25 13:50:05;;;;;;;2.93;1.10;;;6.30;99.90;;;;;;3979746;29;20182;-95
2020/12/25 13:52:06;;;;;;;3.03;0.60;;;6.40;99.90;;;;;;3994425;29;20179;-95
2020/12/25 13:54:08;;;;;;;3.70;1.30;;;6.00;99.90;;;;;;3964001;30;20205;-95
2020/12/25 13:56:15;;;;;;;6.20;2.03;;;5.90;99.90;;;;;;3979213;29;20564;-94
2020/12/25 13:58:19;;;;;;;12.50;1.80;;;5.90;99.90;;;;;;3979620;29;20172;-95
2020/12/25 14:00:23;;;;;;;9.33;3.60;;;6.00;99.90;;;;;;3981238;29;20200;-95
2020/12/25 14:02:29;;;;;;;8.07;2.70;;;6.30;99.90;;;;;;3979395;29;20345;-94
2020/12/25 14:04:55;;;;;;;;;;;;;;;;;;;;;
2020/12/25 14:06:59;;;;;;;17.93;7.57;;;6.70;99.90;;;;;;3980203;29;20184;-95
2020/12/25 14:09:02;;;;;;;13.33;3.07;;;6.80;99.90;;;;;;3964120;30;20224;-94
2020/12/25 14:11:05;;;;;;;9.27;3.87;;;6.80;99.90;;;;;;3996140;29;20234;-95
2020/12/25 14:13:05;;;;;;;10.83;3.93;;;6.80;99.90;;;;;;3994111;29;20195;-94
2020/12/25 14:15:09;;;;;;;9.90;4.23;;;6.80;99.90;;;;;;3978815;29;20192;-95
2020/12/25 14:17:13;;;;;;;13.93;4.13;;;6.60;99.90;;;;;;3979155;29;20204;-95
2020/12/25 14:19:14;;;;;;;13.33;5.13;;;6.50;99.90;;;;;;3978757;29;20187;-96
2020/12/25 14:21:15;;;;;;;10.13;4.00;;;6.60;99.90;;;;;;3965669;30;20610;-95
2020/12/25 14:23:16;;;;;;;13.73;4.77;;;6.60;99.90;;;;;;3963493;30;20715;-94
2020/12/25 14:25:17;;;;;;;11.73;4.53;;;6.70;99.90;;;;;;3965065;30;20200;-96
2020/12/25 14:27:23;;;;;;;12.83;5.10;;;6.60;99.90;;;;;;3981730;29;20176;-96
2020/12/25 14:29:24;;;;;;;10.03;4.03;;;6.50;99.90;;;;;;3998060;29;20563;-95
2020/12/25 14:31:25;;;;;;;7.80;3.27;;;6.70;99.90;;;;;;3983833;29;20184;-95
2020/12/25 14:33:25;;;;;;;9.90;4.47;;;6.60;99.90;;;;;;3967724;29;20189;-96
2020/12/25 14:35:29;;;;;;;10.00;4.10;;;6.60;99.90;;;;;;3983708;29;20207;-94
2020/12/25 14:37:29;;;;;;;12.63;3.80;;;6.50;99.90;;;;;;3998287;29;20577;-95
2020/12/25 14:39:34;;;;;;;7.03;3.43;;;6.40;99.90;;;;;;3984409;29;20191;-93
2020/12/25 14:41:35;;;;;;;8.60;3.20;;;6.50;99.90;;;;;;3983335;29;20187;-94
2020/12/25 14:43:36;;;;;;;9.10;3.20;;;6.30;99.90;;;;;;3999113;29;20211;-94
2020/12/25 14:45:36;;;;;;;6.50;3.27;;;6.30;99.90;;;;;;3982223;29;20195;-94
2020/12/25 14:47:37;;;;;;;9.47;3.30;;;6.40;99.90;;;;;;3998614;29;20180;-94
2020/12/25 14:49:41;;;;;;;9.57;3.50;;;6.50;99.90;;;;;;3970746;29;20195;-94
2020/12/25 14:51:42;;;;;;;13.03;3.80;;;6.40;99.90;;;;;;3984561;29;20188;-96
2020/12/25 14:53:43;;;;;;;7.90;3.20;;;6.30;99.90;;;;;;3983008;29;20180;-95
2020/12/25 14:55:47;;;;;;;7.57;3.20;;;6.40;99.90;;;;;;3982638;29;20276;-94
2020/12/25 14:57:48;;;;;;;6.70;3.47;;;6.30;99.90;;;;;;3982363;29;20169;-95
2020/12/25 14:59:49;;;;;;;11.07;3.67;;;6.40;99.90;;;;;;3966917;30;20203;-95
2020/12/25 15:01:50;;;;;;;12.20;4.07;;;6.40;99.90;;;;;;3966785;30;20172;-96
2020/12/25 15:03:51;;;;;;;11.47;3.80;;;6.60;99.90;;;;;;3980845;29;20263;-94
2020/12/25 15:05:52;;;;;;;11.73;4.00;;;6.60;99.90;;;;;;3982742;29;20186;-93
2020/12/25 15:07:53;;;;;;;11.10;3.97;;;6.70;99.90;;;;;;3981354;29;20640;-95
2020/12/25 15:09:55;;;;;;;11.70;4.43;;;6.50;99.90;;;;;;3981506;29;20584;-94
2020/12/25 15:12:03;;;;;;;12.07;5.13;;;6.50;99.90;;;;;;3981356;29;20184;-94
2020/12/25 15:14:04;;;;;;;12.53;4.47;;;6.40;99.90;;;;;;3995668;29;20695;-95
2020/12/25 15:16:10;;;;;;;9.77;4.27;;;6.30;99.90;;;;;;3980741;29;20176;-95
2020/12/25 15:18:13;;;;;;;12.33;4.90;;;6.30;99.90;;;;;;3995864;29;20247;-94
2020/12/25 15:20:21;;;;;;;11.50;4.90;;;6.20;99.90;;;;;;3996118;29;20187;-96
2020/12/25 15:22:22;;;;;;;13.70;6.00;;;6.40;99.90;;;;;;3982633;29;20187;-94
2020/12/25 15:24:30;;;;;;;15.30;6.80;;;6.40;99.90;;;;;;3981817;29;20310;-96
2020/12/25 15:26:31;;;;;;;16.40;6.60;;;6.40;99.90;;;;;;3984792;29;20560;-95
2020/12/25 15:28:32;;;;;;;14.77;7.00;;;6.40;99.90;;;;;;3987697;29;20180;-94
2020/12/25 15:30:33;;;;;;;11.70;6.33;;;6.30;99.90;;;;;;3982125;29;20168;-94
2020/12/25 15:32:34;;;;;;;7.33;3.80;;;6.20;99.90;;;;;;3982154;29;20215;-92
2020/12/25 15:34:35;;;;;;;13.33;4.50;;;6.40;99.90;;;;;;3969356;29;20237;-94
2020/12/25 15:36:36;;;;;;;11.27;3.63;;;6.90;99.90;;;;;;3984080;29;20271;-94
2020/12/25 15:38:36;;;;;;;9.17;4.50;;;6.60;99.90;;;;;;3982353;29;20208;-95
2020/12/25 15:40:37;;;;;;;6.37;1.63;;;6.00;99.90;;;;;;3967526;29;20284;-93
2020/12/25 15:42:38;;;;;;;6.70;1.80;;;5.70;99.90;;;;;;3969730;30;20177;-95
2020/12/25 15:44:38;;;;;;;5.23;1.70;;;5.40;99.90;;;;;;3969671;30;20220;-95
2020/12/25 15:46:39;;;;;;;6.57;2.90;;;5.30;99.90;;;;;;3969017;30;20185;-95
2020/12/25 15:48:41;;;;;;;12.50;2.33;;;5.20;99.90;;;;;;3967556;30;20246;-94
2020/12/25 15:50:44;;;;;;;10.27;2.70;;;5.10;99.90;;;;;;3983748;29;20225;-91
2020/12/25 15:52:45;;;;;;;6.73;1.87;;;5.20;99.90;;;;;;3968273;30;20195;-94
2020/12/25 15:54:45;;;;;;;9.07;3.13;;;5.30;99.90;;;;;;3970365;30;20213;-94
2020/12/25 15:56:47;;;;;;;11.73;3.17;;;5.20;99.90;;;;;;3968907;30;20268;-93
2020/12/25 15:58:48;;;;;;;8.70;3.20;;;5.20;99.90;;;;;;3984186;29;20184;-93
2020/12/25 16:00:48;;;;;;;12.63;4.10;;;5.20;99.90;;;;;;3983061;29;20192;-89
2020/12/25 16:02:50;;;;;;;12.17;4.00;;;5.10;99.90;;;;;;3974158;29;20181;-93
2020/12/25 16:04:51;;;;;;;14.93;3.90;;;5.00;99.90;;;;;;3951287;30;20290;-93
2020/12/25 16:06:52;;;;;;;10.50;3.60;;;4.90;99.90;;;;;;3964993;30;20281;-93
2020/12/25 16:08:52;;;;;;;10.67;4.30;;;5.00;99.90;;;;;;3950976;30;20177;-93
2020/12/25 16:10:53;;;;;;;12.47;4.23;;;4.90;99.90;;;;;;3965291;30;20220;-93
2020/12/25 16:12:54;;;;;;;12.13;3.83;;;4.90;99.90;;;;;;3965059;30;20181;-93
